Time;durP1;ratioP1;P1;durP2;ratioP2;P2;SDS_P1;SDS_P2;PMS_P1;PMS_P2;Temp;Humidity;BMP_temperature;BMP_pressure;BME280_temperature;BME280_humidity;BME280_pressure;Samples;Min_cycle;Max_cycle;Signal;HPM_P1;HPM_P2
2022/01/31 00:01:46;;;;;;;8.13;1.30;;;8.40;99.90;;;;;;5029293;28;20287;-59
2022/01/31 00:04:12;;;;;;;4.70;1.27;;;8.40;99.90;;;;;;5030112;28;20656;-59
2022/01/31 00:06:37;;;;;;;5.90;1.10;;;8.30;99.90;;;;;;5030441;28;20231;-59
2022/01/31 00:09:03;;;;;;;6.90;1.10;;;8.40;99.90;;;;;;5026281;28;20283;-60
2022/01/31 00:11:30;;;;;;;8.37;1.33;;;8.40;99.90;;;;;;5029368;28;20174;-59
2022/01/31 00:14:00;;;;;;;7.10;1.03;;;8.40;99.90;;;;;;5029330;28;20174;-59
2022/01/31 00:16:32;;;;;;;13.63;1.37;;;8.40;99.90;;;;;;5030515;28;20659;-58
2022/01/31 00:18:58;;;;;;;6.60;1.20;;;8.40;99.90;;;;;;5029830;28;20225;-58
2022/01/31 00:21:24;;;;;;;9.57;1.33;;;8.40;99.90;;;;;;5012536;28;20615;-58
2022/01/31 00:23:50;;;;;;;8.50;1.30;;;8.40;99.90;;;;;;5030259;28;20186;-57
2022/01/31 00:26:15;;;;;;;7.87;1.30;;;8.40;99.90;;;;;;5030300;28;20227;-58
2022/01/31 00:28:41;;;;;;;7.70;1.00;;;8.40;99.90;;;;;;5012433;28;20649;-58
2022/01/31 00:31:07;;;;;;;10.50;1.40;;;8.40;99.90;;;;;;5030099;28;20178;-58
2022/01/31 00:33:33;;;;;;;9.17;1.40;;;8.40;99.90;;;;;;5029862;28;20348;-58
2022/01/31 00:35:58;;;;;;;6.73;1.17;;;8.40;99.90;;;;;;5030214;28;20675;-58
2022/01/31 00:38:24;;;;;;;5.67;1.23;;;8.40;99.90;;;;;;5029482;28;20197;-58
2022/01/31 00:40:50;;;;;;;10.47;1.13;;;8.30;99.90;;;;;;5029791;28;20235;-57
2022/01/31 00:43:17;;;;;;;6.20;1.13;;;8.30;99.90;;;;;;5029941;28;20220;-58
2022/01/31 00:45:58;;;;;;;7.20;1.37;;;8.30;99.90;;;;;;5030253;28;20176;-57
2022/01/31 00:48:26;;;;;;;9.07;1.27;;;8.30;99.90;;;;;;5029346;28;20184;-57
2022/01/31 00:50:52;;;;;;;11.63;1.40;;;8.30;99.90;;;;;;5029617;28;20613;-58
2022/01/31 00:53:17;;;;;;;13.77;1.63;;;8.30;99.90;;;;;;5030137;28;20200;-59
2022/01/31 00:55:43;;;;;;;10.43;1.30;;;8.90;99.90;;;;;;5024401;28;20223;-59
2022/01/31 00:58:09;;;;;;;8.60;1.57;;;8.30;99.90;;;;;;5029882;28;20253;-60
2022/01/31 01:00:35;;;;;;;12.37;2.37;;;8.30;99.90;;;;;;5029840;28;20174;-59
2022/01/31 01:03:02;;;;;;;5.70;1.40;;;8.30;99.90;;;;;;5011554;28;20205;-59
2022/01/31 01:05:28;;;;;;;9.67;1.30;;;8.30;99.90;;;;;;5029739;28;20228;-59
2022/01/31 01:07:54;;;;;;;6.57;1.30;;;8.30;99.90;;;;;;5029302;28;20217;-58
2022/01/31 01:10:20;;;;;;;18.37;1.53;;;8.30;99.90;;;;;;5029188;28;20532;-57
2022/01/31 01:12:47;;;;;;;10.87;1.67;;;8.30;99.90;;;;;;5021841;28;20182;-57
2022/01/31 01:15:15;;;;;;;11.10;1.67;;;8.30;99.90;;;;;;5029461;28;20188;-58
2022/01/31 01:17:41;;;;;;;8.30;1.70;;;8.40;99.90;;;;;;5011408;28;20714;-58
2022/01/31 01:20:07;;;;;;;14.03;1.90;;;8.30;99.90;;;;;;5028777;28;20177;-58
2022/01/31 01:22:33;;;;;;;9.90;1.67;;;8.30;99.90;;;;;;5029533;28;20237;-57
2022/01/31 01:25:01;;;;;;;11.40;1.43;;;8.30;99.90;;;;;;5029740;28;20207;-58
2022/01/31 01:27:27;;;;;;;12.37;1.63;;;8.30;99.90;;;;;;5023415;28;20178;-58
2022/01/31 01:29:52;;;;;;;8.17;1.43;;;8.30;99.90;;;;;;5024664;28;20174;-58
2022/01/31 01:32:18;;;;;;;16.43;1.63;;;8.30;99.90;;;;;;5029454;28;20193;-58
2022/01/31 01:34:44;;;;;;;17.27;1.87;;;8.20;99.90;;;;;;5029561;28;20551;-59
2022/01/31 01:37:10;;;;;;;11.17;1.93;;;8.20;99.90;;;;;;5029323;28;20170;-59
2022/01/31 01:39:36;;;;;;;13.30;2.03;;;8.20;99.90;;;;;;5029491;28;20184;-56
2022/01/31 01:42:02;;;;;;;9.33;1.60;;;8.20;99.90;;;;;;5028954;28;20292;-57
2022/01/31 01:44:50;;;;;;;13.87;1.87;;;8.10;99.90;;;;;;5027992;28;20645;-60
2022/01/31 01:47:22;;;;;;;9.40;1.50;;;8.10;99.90;;;;;;5031367;28;20182;-58
2022/01/31 01:49:50;;;;;;;9.43;1.60;;;8.10;99.90;;;;;;5029152;28;20186;-58
2022/01/31 01:52:17;;;;;;;14.63;1.60;;;8.00;99.90;;;;;;5033437;28;20256;-59
2022/01/31 01:54:44;;;;;;;13.80;1.63;;;8.00;99.90;;;;;;5032965;28;20170;-58
2022/01/31 01:57:10;;;;;;;8.23;1.73;;;8.00;99.90;;;;;;5032801;28;20190;-58
2022/01/31 01:59:37;;;;;;;12.50;1.50;;;7.90;99.90;;;;;;5032706;28;20188;-58
2022/01/31 02:02:04;;;;;;;6.23;1.40;;;8.00;99.90;;;;;;5032747;28;20209;-59
2022/01/31 02:04:31;;;;;;;13.40;1.63;;;8.00;99.90;;;;;;5029883;28;20352;-59
2022/01/31 02:06:57;;;;;;;12.37;2.07;;;7.90;99.90;;;;;;5014880;28;20660;-59
2022/01/31 02:09:25;;;;;;;20.60;2.23;;;7.90;99.90;;;;;;5032726;28;20364;-58
2022/01/31 02:11:54;;;;;;;15.53;1.80;;;7.90;99.90;;;;;;5032866;28;20251;-57
2022/01/31 02:14:26;;;;;;;10.20;1.63;;;7.90;99.90;;;;;;5032447;28;20170;-57
2022/01/31 02:16:52;;;;;;;13.43;2.03;;;7.90;99.90;;;;;;5026902;28;20225;-58
2022/01/31 02:19:19;;;;;;;11.40;1.43;;;7.90;99.90;;;;;;5028703;28;20178;-57
2022/01/31 02:21:48;;;;;;;15.50;2.00;;;7.90;99.90;;;;;;5014652;28;20296;-58
2022/01/31 02:24:14;;;;;;;15.23;2.20;;;7.90;99.90;;;;;;5032447;28;20266;-58
2022/01/31 02:26:40;;;;;;;12.90;1.83;;;7.90;99.90;;;;;;5032149;28;20208;-58
2022/01/31 02:29:08;;;;;;;11.47;1.60;;;7.90;99.90;;;;;;5032988;28;20320;-57
2022/01/31 02:31:35;;;;;;;14.97;2.00;;;7.90;99.90;;;;;;5032787;28;20189;-57
2022/01/31 02:34:01;;;;;;;9.53;1.47;;;7.90;99.90;;;;;;5025727;28;20205;-58
2022/01/31 02:36:26;;;;;;;12.50;1.53;;;7.90;99.90;;;;;;5032612;28;20715;-58
2022/01/31 02:38:52;;;;;;;9.93;1.23;;;7.80;99.90;;;;;;5032028;28;20178;-58
2022/01/31 02:41:18;;;;;;;12.57;1.73;;;7.80;99.90;;;;;;5032650;28;20529;-58
2022/01/31 02:43:49;;;;;;;13.17;1.50;;;7.80;99.90;;;;;;5032009;28;20192;-58
2022/01/31 02:46:15;;;;;;;6.50;1.57;;;7.80;99.90;;;;;;5031989;28;20225;-58
2022/01/31 02:48:40;;;;;;;6.67;1.40;;;7.90;99.90;;;;;;5031514;28;20272;-59
2022/01/31 02:51:10;;;;;;;12.50;1.30;;;7.90;99.90;;;;;;5031452;28;20222;-59
2022/01/31 02:53:41;;;;;;;13.87;1.73;;;8.00;99.90;;;;;;5019214;28;20190;-59
2022/01/31 02:56:07;;;;;;;10.90;2.00;;;8.40;99.90;;;;;;5031444;28;20182;-58
2022/01/31 02:58:33;;;;;;;11.00;1.63;;;8.30;99.90;;;;;;5032361;28;20652;-59
2022/01/31 03:00:59;;;;;;;13.40;2.00;;;8.30;99.90;;;;;;5031019;28;20178;-59
2022/01/31 03:03:26;;;;;;;11.37;1.80;;;8.30;99.90;;;;;;5031234;28;20665;-59
2022/01/31 03:05:52;;;;;;;12.23;1.97;;;8.30;99.90;;;;;;5031830;28;20519;-58
2022/01/31 03:08:19;;;;;;;13.00;2.00;;;8.30;99.90;;;;;;5031793;28;20174;-58
2022/01/31 03:10:45;;;;;;;14.27;2.03;;;8.30;99.90;;;;;;5028572;28;20213;-59
2022/01/31 03:13:11;;;;;;;10.97;1.70;;;8.20;99.90;;;;;;5031692;28;20182;-59
2022/01/31 03:15:37;;;;;;;13.03;1.67;;;8.20;99.90;;;;;;5031293;28;20178;-59
2022/01/31 03:18:05;;;;;;;9.07;1.60;;;8.40;99.90;;;;;;5031726;28;20244;-59
2022/01/31 03:20:31;;;;;;;13.93;2.40;;;8.10;99.90;;;;;;5023951;28;20645;-59
2022/01/31 03:22:58;;;;;;;10.23;1.63;;;8.10;99.90;;;;;;5031492;28;20304;-59
2022/01/31 03:25:23;;;;;;;8.33;1.20;;;8.20;99.90;;;;;;5030585;28;20177;-59
2022/01/31 03:27:50;;;;;;;11.80;1.93;;;8.10;99.90;;;;;;5031939;28;20186;-59
2022/01/31 03:30:18;;;;;;;13.20;1.77;;;8.20;99.90;;;;;;5031426;28;20182;-59
2022/01/31 03:32:44;;;;;;;11.60;1.70;;;8.20;99.90;;;;;;5029122;28;20185;-59
2022/01/31 03:35:10;;;;;;;14.83;2.30;;;8.20;99.90;;;;;;5031654;28;20236;-59
2022/01/31 03:37:36;;;;;;;9.97;2.00;;;8.10;99.90;;;;;;5031383;28;20287;-59
2022/01/31 03:40:04;;;;;;;12.33;1.90;;;8.10;99.90;;;;;;5029470;28;20182;-59
2022/01/31 03:42:30;;;;;;;14.57;1.80;;;8.10;99.90;;;;;;5015337;28;20275;-60
2022/01/31 03:44:56;;;;;;;16.53;2.20;;;8.10;99.90;;;;;;5031405;28;20209;-61
2022/01/31 03:47:22;;;;;;;16.17;2.20;;;8.00;99.90;;;;;;5031021;28;20182;-60
2022/01/31 03:49:49;;;;;;;12.33;1.60;;;8.00;99.90;;;;;;5030313;28;20178;-60
2022/01/31 03:52:16;;;;;;;12.83;1.70;;;8.00;99.90;;;;;;5024711;28;20203;-58
2022/01/31 03:54:42;;;;;;;18.87;2.13;;;8.10;99.90;;;;;;5028221;28;20248;-60
2022/01/31 03:57:08;;;;;;;11.70;1.77;;;8.20;99.90;;;;;;5030390;28;20174;-57
2022/01/31 03:59:34;;;;;;;13.30;1.90;;;8.20;99.90;;;;;;5030937;28;20181;-57
2022/01/31 04:02:02;;;;;;;16.20;2.47;;;8.10;99.90;;;;;;5030984;28;20214;-57
2022/01/31 04:04:28;;;;;;;20.53;2.20;;;8.10;99.90;;;;;;5030523;28;20298;-56
2022/01/31 04:06:54;;;;;;;12.27;2.03;;;8.10;99.90;;;;;;5030886;28;20589;-57
2022/01/31 04:09:20;;;;;;;17.73;2.50;;;8.00;99.90;;;;;;5029957;28;20182;-56
2022/01/31 04:11:45;;;;;;;9.00;1.60;;;8.10;99.90;;;;;;5030949;28;20957;-57
2022/01/31 04:14:12;;;;;;;12.43;2.20;;;8.20;99.90;;;;;;5030988;28;20178;-57
2022/01/31 04:16:38;;;;;;;11.93;2.13;;;8.10;99.90;;;;;;5031011;28;20216;-57
2022/01/31 04:19:05;;;;;;;15.53;1.77;;;8.10;99.90;;;;;;5030205;28;20300;-57
2022/01/31 04:21:31;;;;;;;16.97;2.13;;;8.00;99.90;;;;;;5029579;28;20208;-57
2022/01/31 04:23:58;;;;;;;12.53;1.83;;;8.10;99.90;;;;;;5028635;28;20186;-57
2022/01/31 04:26:31;;;;;;;12.03;1.70;;;8.10;99.90;;;;;;5033276;28;20178;-57
2022/01/31 04:29:05;;;;;;;13.73;1.77;;;8.10;99.90;;;;;;5029102;28;20174;-57
2022/01/31 04:31:38;;;;;;;14.77;1.87;;;8.10;99.90;;;;;;5031084;28;20185;-59
2022/01/31 04:34:04;;;;;;;13.10;2.27;;;8.10;99.90;;;;;;5030760;28;20786;-59
2022/01/31 04:36:30;;;;;;;15.67;1.83;;;8.00;99.90;;;;;;5030763;28;20178;-59
2022/01/31 04:38:56;;;;;;;15.83;2.00;;;8.00;99.90;;;;;;5030486;28;20177;-59
2022/01/31 04:41:22;;;;;;;9.47;1.73;;;8.00;99.90;;;;;;5030216;28;20214;-59
2022/01/31 04:43:49;;;;;;;14.70;1.63;;;8.00;99.90;;;;;;5030533;28;20659;-58
2022/01/31 04:46:16;;;;;;;12.10;2.03;;;8.00;99.90;;;;;;5024567;28;20650;-59
2022/01/31 04:48:44;;;;;;;15.47;2.13;;;8.10;99.90;;;;;;5030053;28;20178;-58
2022/01/31 04:51:11;;;;;;;14.20;1.83;;;8.10;99.90;;;;;;5030614;28;20518;-58
2022/01/31 04:53:37;;;;;;;11.50;1.53;;;8.00;99.90;;;;;;5030575;28;20174;-58
2022/01/31 04:56:03;;;;;;;12.87;2.17;;;8.00;99.90;;;;;;5030343;28;20182;-58
2022/01/31 04:58:31;;;;;;;14.43;1.90;;;8.10;99.90;;;;;;5012608;28;20174;-58
2022/01/31 05:00:57;;;;;;;15.50;1.90;;;8.00;99.90;;;;;;5030046;28;20170;-58
2022/01/31 05:03:23;;;;;;;15.30;2.23;;;8.00;99.90;;;;;;5030307;28;20193;-58
2022/01/31 05:05:49;;;;;;;12.20;2.33;;;8.00;99.90;;;;;;5012561;28;20581;-58
2022/01/31 05:08:16;;;;;;;20.47;2.10;;;7.90;99.90;;;;;;5030282;28;20264;-59
2022/01/31 05:10:44;;;;;;;13.40;1.60;;;7.90;99.90;;;;;;5029371;28;20189;-59
2022/01/31 05:13:12;;;;;;;14.03;1.60;;;7.90;99.90;;;;;;5030103;28;20255;-59
2022/01/31 05:15:38;;;;;;;17.07;2.10;;;7.90;99.90;;;;;;5030429;28;20193;-59
2022/01/31 05:18:03;;;;;;;14.90;1.60;;;7.90;99.90;;;;;;5029804;28;20217;-59
2022/01/31 05:20:29;;;;;;;13.80;1.87;;;8.00;99.90;;;;;;5029241;28;20573;-59
2022/01/31 05:22:55;;;;;;;10.43;2.17;;;7.90;99.90;;;;;;5029339;28;20244;-59
2022/01/31 05:25:21;;;;;;;16.07;1.83;;;7.90;99.90;;;;;;5029610;28;20241;-59
2022/01/31 05:27:46;;;;;;;9.30;1.73;;;7.90;99.90;;;;;;5029528;28;20174;-60
2022/01/31 05:30:12;;;;;;;10.23;1.50;;;7.90;99.90;;;;;;5029918;28;20173;-60
2022/01/31 05:32:38;;;;;;;14.43;2.10;;;7.80;99.90;;;;;;5029519;28;20182;-60
2022/01/31 05:35:05;;;;;;;11.93;1.60;;;7.80;99.90;;;;;;5030379;28;20644;-59
2022/01/31 05:37:32;;;;;;;8.13;1.33;;;7.80;99.90;;;;;;5029751;28;20177;-59
2022/01/31 05:39:57;;;;;;;9.60;1.70;;;7.80;99.90;;;;;;5029652;28;20188;-59
2022/01/31 05:42:23;;;;;;;21.97;1.90;;;7.80;99.90;;;;;;5011858;28;20209;-60
2022/01/31 05:44:49;;;;;;;13.10;1.70;;;7.80;99.90;;;;;;5029386;28;20265;-59
2022/01/31 05:47:15;;;;;;;13.97;2.27;;;7.80;99.90;;;;;;5029792;28;20181;-59
2022/01/31 05:49:41;;;;;;;13.67;2.00;;;7.70;99.90;;;;;;5029515;28;20201;-59
2022/01/31 05:52:07;;;;;;;9.93;2.00;;;7.70;99.90;;;;;;5017383;28;20182;-59
2022/01/31 05:54:38;;;;;;;15.47;1.90;;;7.70;99.90;;;;;;5028564;28;20181;-60
2022/01/31 05:57:05;;;;;;;11.50;1.70;;;7.70;99.90;;;;;;5029578;28;20656;-60
2022/01/31 05:59:32;;;;;;;11.30;1.80;;;7.70;99.90;;;;;;5029417;28;20297;-60
2022/01/31 06:01:58;;;;;;;12.97;1.90;;;7.70;99.90;;;;;;5029772;28;20647;-59
2022/01/31 06:04:24;;;;;;;8.57;1.83;;;7.70;99.90;;;;;;5029424;28;20641;-59
2022/01/31 06:06:50;;;;;;;18.67;1.90;;;7.60;99.90;;;;;;5029639;28;20185;-60
2022/01/31 06:09:16;;;;;;;19.03;1.87;;;7.60;99.90;;;;;;5025934;28;20177;-59
2022/01/31 06:11:44;;;;;;;14.63;2.23;;;7.60;99.90;;;;;;5029443;28;20225;-59
2022/01/31 06:14:10;;;;;;;16.73;2.20;;;7.60;99.90;;;;;;5029247;28;20178;-59
2022/01/31 06:16:36;;;;;;;13.00;1.57;;;7.70;99.90;;;;;;5029722;28;20181;-58
2022/01/31 06:19:03;;;;;;;14.33;2.00;;;7.60;99.90;;;;;;5027060;28;20271;-58
2022/01/31 06:21:28;;;;;;;12.20;2.07;;;7.60;99.90;;;;;;5023859;28;20755;-59
2022/01/31 06:23:54;;;;;;;9.50;1.63;;;7.60;99.90;;;;;;5029265;28;20269;-59
2022/01/31 06:26:21;;;;;;;11.73;2.20;;;7.60;99.90;;;;;;5029686;28;20178;-59
2022/01/31 06:28:48;;;;;;;7.07;1.67;;;7.60;99.90;;;;;;5022562;28;20260;-59
2022/01/31 06:31:14;;;;;;;11.10;2.00;;;7.70;99.90;;;;;;5018182;28;20174;-59
2022/01/31 06:33:41;;;;;;;10.63;1.63;;;7.60;99.90;;;;;;5031726;28;20178;-59
2022/01/31 06:36:07;;;;;;;16.53;1.80;;;7.50;99.90;;;;;;5033234;28;20178;-58
2022/01/31 06:38:35;;;;;;;22.07;2.20;;;7.50;99.90;;;;;;5032812;28;20685;-58
2022/01/31 06:41:04;;;;;;;9.93;1.47;;;7.40;99.90;;;;;;5032904;28;20170;-59
2022/01/31 06:43:30;;;;;;;15.87;2.07;;;7.40;99.90;;;;;;5033124;28;20185;-59
2022/01/31 06:45:56;;;;;;;12.37;1.77;;;7.50;99.90;;;;;;5032672;28;20675;-58
2022/01/31 06:48:22;;;;;;;11.50;1.80;;;;;;;;;;5015099;28;20541;-58
2022/01/31 06:50:48;;;;;;;16.13;2.33;;;7.50;99.90;;;;;;5032143;28;20173;-58
2022/01/31 06:53:16;;;;;;;13.77;1.63;;;7.50;99.90;;;;;;5032817;28;20184;-58
2022/01/31 06:55:42;;;;;;;16.27;1.97;;;7.40;99.90;;;;;;5032774;28;20169;-58
2022/01/31 06:58:07;;;;;;;18.60;1.73;;;7.60;99.90;;;;;;5029357;28;20174;-59
2022/01/31 07:00:33;;;;;;;9.37;1.67;;;8.30;99.90;;;;;;5031031;28;20257;-59
2022/01/31 07:03:04;;;;;;;10.83;1.77;;;7.50;99.90;;;;;;5032171;28;20324;-60
2022/01/31 07:05:30;;;;;;;10.90;1.50;;;7.50;99.90;;;;;;5032481;28;20202;-58
2022/01/31 07:07:56;;;;;;;15.73;1.53;;;7.50;99.90;;;;;;5032227;28;20304;-59
2022/01/31 07:10:22;;;;;;;21.47;2.33;;;7.50;99.90;;;;;;5031299;28;20615;-59
2022/01/31 07:12:53;;;;;;;15.50;2.27;;;7.50;99.90;;;;;;5032159;28;20253;-59
2022/01/31 07:15:19;;;;;;;11.33;1.70;;;7.40;99.90;;;;;;5031462;28;20178;-59
2022/01/31 07:17:46;;;;;;;20.70;1.90;;;7.40;99.90;;;;;;5015675;28;20245;-56
2022/01/31 07:20:22;;;;;;;10.13;1.70;;;7.40;99.90;;;;;;5031821;28;20609;-55
2022/01/31 07:23:01;;;;;;;16.70;2.00;;;7.40;99.90;;;;;;5032046;28;20270;-55
2022/01/31 07:25:34;;;;;;;16.23;1.90;;;7.40;99.90;;;;;;5027795;28;20268;-55
2022/01/31 07:28:07;;;;;;;15.27;2.40;;;7.40;99.90;;;;;;5020470;28;20178;-56
2022/01/31 07:30:33;;;;;;;21.10;2.53;;;7.40;99.90;;;;;;5031868;28;20240;-55
2022/01/31 07:32:59;;;;;;;12.63;1.83;;;7.30;99.90;;;;;;5031215;28;20182;-56
2022/01/31 07:35:25;;;;;;;12.77;2.07;;;7.30;99.90;;;;;;5032026;28;20227;-55
2022/01/31 07:37:51;;;;;;;13.57;2.07;;;7.30;99.90;;;;;;5031656;28;20177;-56
2022/01/31 07:40:17;;;;;;;16.43;1.87;;;7.40;99.90;;;;;;5031318;28;20536;-55
2022/01/31 07:42:42;;;;;;;14.10;1.70;;;7.50;99.90;;;;;;5031431;28;20206;-56
2022/01/31 07:45:09;;;;;;;19.33;2.10;;;7.60;99.90;;;;;;5031000;28;20189;-59
2022/01/31 07:47:35;;;;;;;20.67;2.10;;;7.60;99.90;;;;;;5030727;28;20174;-59
2022/01/31 07:50:02;;;;;;;17.00;1.90;;;7.60;99.90;;;;;;5031027;28;20563;-60
2022/01/31 07:52:28;;;;;;;12.50;1.80;;;7.60;99.90;;;;;;5031351;28;20193;-60
2022/01/31 07:54:54;;;;;;;11.17;1.80;;;7.70;99.90;;;;;;5031301;28;20186;-60
2022/01/31 07:57:24;;;;;;;12.27;1.83;;;7.70;99.90;;;;;;5030941;28;20688;-61
2022/01/31 07:59:49;;;;;;;19.77;2.43;;;7.70;99.90;;;;;;5012911;28;20641;-60
2022/01/31 08:02:15;;;;;;;11.53;2.10;;;7.70;99.90;;;;;;5030391;28;20197;-60
2022/01/31 08:04:41;;;;;;;14.40;1.90;;;7.60;99.90;;;;;;5025359;28;20248;-60
2022/01/31 08:07:07;;;;;;;16.60;2.30;;;7.80;99.90;;;;;;5019506;28;20198;-60
2022/01/31 08:09:32;;;;;;;9.97;1.60;;;7.70;99.90;;;;;;5030988;28;20240;-61
2022/01/31 08:11:59;;;;;;;15.43;1.90;;;7.80;99.90;;;;;;5030491;28;20178;-59
2022/01/31 08:14:25;;;;;;;11.83;2.17;;;8.00;99.90;;;;;;5030521;28;20687;-60
2022/01/31 08:16:51;;;;;;;15.80;1.97;;;7.90;99.90;;;;;;5029505;28;20198;-60
2022/01/31 08:19:17;;;;;;;20.00;1.90;;;7.90;99.90;;;;;;5030612;28;20185;-60
2022/01/31 08:21:42;;;;;;;13.43;1.67;;;7.90;99.90;;;;;;5031053;28;20708;-59
2022/01/31 08:24:09;;;;;;;11.77;1.30;;;7.90;99.90;;;;;;5013150;28;20551;-59
2022/01/31 08:26:35;;;;;;;8.37;2.13;;;8.00;99.90;;;;;;5030747;28;20260;-60
2022/01/31 08:29:15;;;;;;;15.73;1.80;;;7.90;99.90;;;;;;5028339;28;20637;-59
2022/01/31 08:31:41;;;;;;;26.60;2.43;;;7.90;99.90;;;;;;5030945;28;20178;-60
2022/01/31 08:34:22;;;;;;;16.43;2.20;;;7.80;99.90;;;;;;5038507;28;20600;-60
2022/01/31 08:36:48;;;;;;;17.80;2.03;;;7.90;99.90;;;;;;5034514;28;20196;-60
2022/01/31 08:39:19;;;;;;;20.27;1.80;;;8.00;99.90;;;;;;5031065;28;20182;-59
2022/01/31 08:41:48;;;;;;;16.83;2.50;;;8.10;99.90;;;;;;5030732;28;20224;-59
2022/01/31 08:44:19;;;;;;;11.40;2.10;;;8.30;99.90;;;;;;5030028;28;20177;-60
2022/01/31 08:46:47;;;;;;;16.47;2.17;;;8.60;99.90;;;;;;5027383;28;20185;-60
2022/01/31 08:49:14;;;;;;;11.83;1.90;;;8.50;99.90;;;;;;5030405;28;20212;-60
2022/01/31 08:51:41;;;;;;;19.87;2.23;;;8.30;99.90;;;;;;5030384;28;20174;-59
2022/01/31 08:54:08;;;;;;;16.90;2.43;;;8.20;99.90;;;;;;5030291;28;20670;-59
2022/01/31 08:56:40;;;;;;;13.23;2.03;;;8.20;99.90;;;;;;5027194;28;20209;-56
2022/01/31 08:59:07;;;;;;;10.83;2.03;;;8.80;99.90;;;;;;5029254;28;20220;-57
2022/01/31 09:01:33;;;;;;;16.90;2.03;;;9.40;99.90;;;;;;5012347;28;20382;-57
2022/01/31 09:04:04;;;;;;;16.50;2.07;;;10.70;99.90;;;;;;5029523;28;20672;-58
2022/01/31 09:06:32;;;;;;;17.60;2.70;;;10.40;99.90;;;;;;5030280;28;20213;-59
2022/01/31 09:08:59;;;;;;;8.67;1.70;;;10.30;99.90;;;;;;5028277;28;20182;-57
2022/01/31 09:11:26;;;;;;;17.53;2.70;;;9.40;99.90;;;;;;5012344;28;20203;-58
2022/01/31 09:13:52;;;;;;;14.93;2.33;;;9.00;99.90;;;;;;5015334;28;20260;-57
2022/01/31 09:16:18;;;;;;;18.73;2.17;;;8.90;99.90;;;;;;5030383;28;20181;-56
2022/01/31 09:18:44;;;;;;;17.90;2.13;;;8.90;99.90;;;;;;5029170;28;20221;-58
2022/01/31 09:21:10;;;;;;;20.90;2.57;;;9.00;99.90;;;;;;5030198;28;20170;-57
2022/01/31 09:23:37;;;;;;;18.07;2.63;;;8.90;99.90;;;;;;5029797;28;20182;-57
2022/01/31 09:26:03;;;;;;;24.00;3.00;;;8.80;99.90;;;;;;5027022;28;20273;-55
2022/01/31 09:28:30;;;;;;;15.77;2.00;;;8.70;99.90;;;;;;5025157;28;20654;-55
2022/01/31 09:30:56;;;;;;;13.43;2.17;;;8.70;99.90;;;;;;5030137;28;20174;-57
2022/01/31 09:33:22;;;;;;;17.87;2.43;;;8.60;99.90;;;;;;5030088;28;20637;-55
2022/01/31 09:35:48;;;;;;;20.23;2.53;;;8.60;99.90;;;;;;5023503;28;20195;-55
2022/01/31 09:38:17;;;;;;;15.27;2.40;;;8.50;99.90;;;;;;5028088;28;20249;-55
2022/01/31 09:40:44;;;;;;;11.83;2.13;;;8.40;99.90;;;;;;5029233;28;20188;-55
2022/01/31 09:48:33;;;;;;;13.83;2.27;;;8.30;99.90;;;;;;5029691;28;20170;-56
2022/01/31 09:51:14;;;;;;;11.73;1.90;;;8.30;99.90;;;;;;5030022;28;20166;-56
2022/01/31 09:53:51;;;;;;;13.60;2.03;;;8.40;99.90;;;;;;5029616;28;20262;-56
2022/01/31 09:56:23;;;;;;;12.67;2.50;;;8.10;99.90;;;;;;5029652;28;20204;-56
2022/01/31 09:58:51;;;;;;;11.93;2.37;;;8.20;99.90;;;;;;5029561;28;20232;-56
2022/01/31 10:01:28;;;;;;;10.37;1.83;;;8.20;99.90;;;;;;5029283;28;20178;-56
2022/01/31 10:03:59;;;;;;;16.20;2.40;;;8.30;99.90;;;;;;5029447;28;20173;-55
2022/01/31 10:06:32;;;;;;;18.67;2.20;;;8.20;99.90;;;;;;5026965;28;20227;-56
2022/01/31 10:09:06;;;;;;;20.07;2.20;;;8.30;99.90;;;;;;5028493;28;20637;-55
2022/01/31 10:11:40;;;;;;;21.43;2.47;;;8.30;99.90;;;;;;5032380;28;20823;-55
2022/01/31 10:17:00;;;;;;;14.77;2.33;;;8.00;99.90;;;;;;5027634;28;20252;-55
2022/01/31 10:19:26;;;;;;;11.17;1.87;;;8.10;99.90;;;;;;5031393;28;20166;-55
2022/01/31 10:21:56;;;;;;;11.07;1.50;;;8.20;99.90;;;;;;5031345;28;20296;-56
2022/01/31 10:24:23;;;;;;;10.37;1.73;;;8.80;99.90;;;;;;5030906;28;20264;-54
2022/01/31 10:26:49;;;;;;;14.43;2.13;;;9.80;99.90;;;;;;5030819;28;20166;-55
2022/01/31 10:29:17;;;;;;;12.73;1.83;;;9.90;99.90;;;;;;5030882;28;20174;-55
2022/01/31 10:32:06;;;;;;;13.07;2.00;;;10.00;99.90;;;;;;5032474;28;20299;-56
2022/01/31 10:34:53;;;;;;;10.67;1.90;;;10.50;99.90;;;;;;5014432;28;20731;-56
2022/01/31 10:37:21;;;;;;;16.77;2.40;;;10.60;99.90;;;;;;5021154;28;20220;-56
2022/01/31 10:54:13;;;;;;;18.97;3.20;;;9.80;99.90;;;;;;5027369;28;20177;-60
2022/01/31 10:56:47;;;;;;;13.10;2.33;;;10.20;99.90;;;;;;5026967;28;20178;-55
2022/01/31 10:59:36;;;;;;;19.10;2.40;;;10.40;99.90;;;;;;5016465;28;20181;-55
2022/01/31 11:02:05;;;;;;;14.83;2.43;;;10.40;99.90;;;;;;5026377;28;20245;-55
2022/01/31 11:04:37;;;;;;;17.57;2.23;;;10.20;99.90;;;;;;5031972;28;20186;-55
2022/01/31 11:07:07;;;;;;;17.40;2.20;;;10.70;99.90;;;;;;5010820;28;20190;-56
2022/01/31 11:09:33;;;;;;;16.77;2.30;;;11.00;99.90;;;;;;5012585;28;20258;-55
2022/01/31 11:12:00;;;;;;;11.37;2.00;;;12.00;99.90;;;;;;5011263;28;20240;-57
2022/01/31 11:14:26;;;;;;;13.23;2.00;;;12.60;99.90;;;;;;4994764;28;20174;-57
2022/01/31 11:16:56;;;;;;;15.77;2.10;;;13.90;99.90;;;;;;5029865;28;20218;-61
2022/01/31 11:19:32;;;;;;;8.30;2.15;;;15.30;99.90;;;;;;5028518;28;20182;-57
2022/01/31 11:22:05;;;;;;;13.68;2.35;;;16.70;99.90;;;;;;5025138;28;20286;-59
2022/01/31 11:24:47;;;;;;;9.15;2.05;;;18.10;99.90;;;;;;5029519;28;20174;-58
2022/01/31 11:27:16;;;;;;;12.43;2.22;;;19.40;99.90;;;;;;5031488;28;20656;-58
2022/01/31 11:29:48;;;;;;;6.22;1.65;;;20.60;99.90;;;;;;5014019;28;20174;-58
2022/01/31 11:32:14;;;;;;;9.90;2.00;;;20.70;99.90;;;;;;5014018;28;20169;-58
2022/01/31 11:34:43;;;;;;;19.80;2.53;;;20.90;99.90;;;;;;5030727;28;20174;-58
2022/01/31 11:37:13;;;;;;;10.88;1.60;;;20.50;99.90;;;;;;5031030;28;20257;-58
2022/01/31 11:39:42;;;;;;;5.85;1.50;;;20.90;99.90;;;;;;5031649;28;20178;-57
2022/01/31 11:42:09;;;;;;;9.80;1.92;;;19.30;99.90;;;;;;5030912;28;20272;-58
2022/01/31 11:44:57;;;;;;;8.95;1.63;;;18.60;99.90;;;;;;5030975;28;20173;-58
2022/01/31 11:47:24;;;;;;;7.85;1.30;;;16.70;99.90;;;;;;5031744;28;20520;-58
2022/01/31 11:49:55;;;;;;;6.93;1.35;;;14.30;99.90;;;;;;5031443;28;20201;-58
2022/01/31 11:52:22;;;;;;;7.40;1.48;;;12.90;99.90;;;;;;5031539;28;20266;-58
2022/01/31 11:55:00;;;;;;;7.18;1.40;;;11.60;99.90;;;;;;5028827;28;20170;-56
2022/01/31 11:57:28;;;;;;;9.52;1.83;;;14.20;99.90;;;;;;5030674;28;20170;-56
2022/01/31 12:00:00;;;;;;;12.13;2.08;;;14.10;99.90;;;;;;5015422;28;20180;-57
2022/01/31 12:02:30;;;;;;;13.18;1.50;;;15.50;99.90;;;;;;5025848;28;20218;-57
2022/01/31 12:05:02;;;;;;;6.10;1.48;;;16.30;99.90;;;;;;5024549;28;20221;-58
2022/01/31 12:07:39;;;;;;;7.03;1.60;;;17.00;99.90;;;;;;5010922;28;20167;-57
2022/01/31 12:10:07;;;;;;;7.10;1.48;;;15.80;99.90;;;;;;5018314;28;20180;-58
2022/01/31 12:23:56;;;;;;;8.77;1.42;;;14.20;99.90;;;;;;5030958;28;20204;-57
2022/01/31 12:27:01;;;;;;;10.00;1.95;;;12.50;99.90;;;;;;5030488;28;20193;-57
2022/01/31 12:29:31;;;;;;;11.30;1.38;;;11.30;99.90;;;;;;4980335;28;20272;-55
2022/01/31 12:32:18;;;;;;;9.38;1.42;;;10.50;99.90;;;;;;5024516;28;20204;-55
2022/01/31 12:34:56;;;;;;;8.30;1.83;;;10.40;99.90;;;;;;5028811;28;20177;-56
2022/01/31 12:37:54;;;;;;;8.03;1.47;;;10.40;99.90;;;;;;5029529;28;20180;-56
2022/01/31 12:40:30;;;;;;;12.40;1.93;;;10.50;99.90;;;;;;5006900;28;20208;-56
2022/01/31 12:45:38;;;;;;;9.77;1.37;;;10.70;99.90;;;;;;5029829;28;20335;-56
2022/01/31 12:48:13;;;;;;;11.77;1.50;;;10.80;99.90;;;;;;5030223;28;20185;-57
2022/01/31 12:50:58;;;;;;;8.70;1.57;;;11.30;99.90;;;;;;5022373;28;20185;-56
2022/01/31 12:53:29;;;;;;;13.03;2.10;;;12.00;99.90;;;;;;5027086;28;20231;-57
2022/01/31 12:55:58;;;;;;;8.60;1.30;;;14.00;99.90;;;;;;5030159;28;20265;-57
2022/01/31 12:58:39;;;;;;;6.40;1.40;;;14.20;99.90;;;;;;5029233;28;20513;-56
2022/01/31 13:01:11;;;;;;;8.13;1.52;;;13.90;99.90;;;;;;5021226;28;20178;-58
2022/01/31 13:03:40;;;;;;;15.68;1.70;;;16.30;99.90;;;;;;5029984;28;20201;-62
2022/01/31 13:06:37;;;;;;;9.88;1.48;;;16.70;99.90;;;;;;5027582;28;20249;-59
2022/01/31 13:09:22;;;;;;;9.57;1.63;;;15.70;99.90;;;;;;5015652;28;20188;-61
2022/01/31 13:12:05;;;;;;;14.20;1.85;;;13.80;99.90;;;;;;5026540;28;20656;-57
2022/01/31 13:14:38;;;;;;;9.48;1.67;;;13.20;99.90;;;;;;5021817;28;20174;-56
2022/01/31 13:17:07;;;;;;;14.35;1.83;;;12.70;99.90;;;;;;5019553;28;20209;-57
2022/01/31 13:19:39;;;;;;;13.40;1.80;;;12.70;99.90;;;;;;5019747;28;20170;-57
2022/01/31 13:22:10;;;;;;;9.25;1.80;;;12.20;99.90;;;;;;5029571;28;20194;-57
2022/01/31 13:24:42;;;;;;;7.93;1.30;;;12.00;99.90;;;;;;5029628;28;20292;-56
2022/01/31 13:27:11;;;;;;;9.73;1.40;;;11.40;99.90;;;;;;5012203;28;20620;-56
2022/01/31 13:29:39;;;;;;;12.07;1.80;;;12.30;99.90;;;;;;5029194;28;20210;-56
2022/01/31 13:32:20;;;;;;;9.87;1.53;;;12.60;99.90;;;;;;5011299;28;20185;-55